sensor_id;sensor_type;location;lat;lon;timestamp;P1;durP1;ratioP1;P2;durP2;ratioP2
79348;SDS011;68817;48.110;11.660;2023-12-14T00:00:04;0.77;;;0.60;;
79348;SDS011;68817;48.110;11.660;2023-12-14T00:02:30;0.68;;;0.50;;
79348;SDS011;68817;48.110;11.660;2023-12-14T00:04:56;1.92;;;0.50;;
79348;SDS011;68817;48.110;11.660;2023-12-14T00:07:21;1.10;;;0.60;;
79348;SDS011;68817;48.110;11.660;2023-12-14T00:09:47;2.40;;;0.70;;
79348;SDS011;68817;48.110;11.660;2023-12-14T00:12:12;0.60;;;0.50;;
79348;SDS011;68817;48.110;11.660;2023-12-14T00:14:37;1.33;;;0.63;;
79348;SDS011;68817;48.110;11.660;2023-12-14T00:17:03;1.30;;;0.60;;
79348;SDS011;68817;48.110;11.660;2023-12-14T00:19:28;0.55;;;0.47;;
79348;SDS011;68817;48.110;11.660;2023-12-14T00:21:54;0.60;;;0.50;;
79348;SDS011;68817;48.110;11.660;2023-12-14T00:24:19;0.80;;;0.50;;
79348;SDS011;68817;48.110;11.660;2023-12-14T00:26:45;1.13;;;0.55;;
79348;SDS011;68817;48.110;11.660;2023-12-14T00:29:10;0.90;;;0.63;;
79348;SDS011;68817;48.110;11.660;2023-12-14T00:31:35;0.45;;;0.40;;
79348;SDS011;68817;48.110;11.660;2023-12-14T00:34:01;0.82;;;0.60;;
79348;SDS011;68817;48.110;11.660;2023-12-14T00:36:28;0.95;;;0.70;;
79348;SDS011;68817;48.110;11.660;2023-12-14T00:38:53;0.55;;;0.40;;
79348;SDS011;68817;48.110;11.660;2023-12-14T00:41:20;1.58;;;0.60;;
79348;SDS011;68817;48.110;11.660;2023-12-14T00:43:46;1.27;;;0.75;;
79348;SDS011;68817;48.110;11.660;2023-12-14T00:46:11;1.00;;;0.50;;
79348;SDS011;68817;48.110;11.660;2023-12-14T00:48:36;0.90;;;0.60;;
79348;SDS011;68817;48.110;11.660;2023-12-14T00:51:02;1.85;;;0.60;;
79348;SDS011;68817;48.110;11.660;2023-12-14T00:53:27;0.85;;;0.60;;
79348;SDS011;68817;48.110;11.660;2023-12-14T00:55:53;0.90;;;0.65;;
79348;SDS011;68817;48.110;11.660;2023-12-14T00:58:18;1.00;;;0.70;;
79348;SDS011;68817;48.110;11.660;2023-12-14T01:00:44;1.00;;;0.65;;
79348;SDS011;68817;48.110;11.660;2023-12-14T01:03:09;1.02;;;0.70;;
79348;SDS011;68817;48.110;11.660;2023-12-14T01:05:34;1.08;;;0.98;;
79348;SDS011;68817;48.110;11.660;2023-12-14T01:08:00;1.17;;;0.70;;
79348;SDS011;68817;48.110;11.660;2023-12-14T01:10:25;1.23;;;0.90;;
79348;SDS011;68817;48.110;11.660;2023-12-14T01:12:51;0.98;;;0.70;;
79348;SDS011;68817;48.110;11.660;2023-12-14T01:15:16;1.85;;;0.70;;
79348;SDS011;68817;48.110;11.660;2023-12-14T01:17:41;1.42;;;0.60;;
79348;SDS011;68817;48.110;11.660;2023-12-14T01:20:07;0.80;;;0.60;;
79348;SDS011;68817;48.110;11.660;2023-12-14T01:22:33;3.72;;;0.77;;
79348;SDS011;68817;48.110;11.660;2023-12-14T01:24:58;1.95;;;0.80;;
79348;SDS011;68817;48.110;11.660;2023-12-14T01:27:24;1.23;;;0.73;;
79348;SDS011;68817;48.110;11.660;2023-12-14T01:29:50;2.15;;;0.75;;
79348;SDS011;68817;48.110;11.660;2023-12-14T01:32:15;1.48;;;0.90;;
79348;SDS011;68817;48.110;11.660;2023-12-14T01:34:40;0.80;;;0.70;;
79348;SDS011;68817;48.110;11.660;2023-12-14T01:37:06;0.85;;;0.73;;
79348;SDS011;68817;48.110;11.660;2023-12-14T01:39:32;1.30;;;0.80;;
79348;SDS011;68817;48.110;11.660;2023-12-14T01:41:57;1.60;;;0.80;;
79348;SDS011;68817;48.110;11.660;2023-12-14T01:44:23;2.30;;;0.80;;
79348;SDS011;68817;48.110;11.660;2023-12-14T01:46:48;1.15;;;0.73;;
79348;SDS011;68817;48.110;11.660;2023-12-14T01:49:14;1.08;;;0.73;;
79348;SDS011;68817;48.110;11.660;2023-12-14T01:51:39;0.93;;;0.70;;
79348;SDS011;68817;48.110;11.660;2023-12-14T01:54:04;1.48;;;0.80;;
79348;SDS011;68817;48.110;11.660;2023-12-14T01:56:30;1.00;;;0.50;;
79348;SDS011;68817;48.110;11.660;2023-12-14T01:58:55;1.55;;;0.57;;
79348;SDS011;68817;48.110;11.660;2023-12-14T02:01:40;1.05;;;0.70;;
79348;SDS011;68817;48.110;11.660;2023-12-14T02:04:07;0.75;;;0.52;;
79348;SDS011;68817;48.110;11.660;2023-12-14T02:06:33;0.60;;;0.52;;
79348;SDS011;68817;48.110;11.660;2023-12-14T02:08:58;0.80;;;0.55;;
79348;SDS011;68817;48.110;11.660;2023-12-14T02:11:24;0.70;;;0.50;;
79348;SDS011;68817;48.110;11.660;2023-12-14T02:13:49;0.73;;;0.50;;
79348;SDS011;68817;48.110;11.660;2023-12-14T02:16:14;0.68;;;0.60;;
79348;SDS011;68817;48.110;11.660;2023-12-14T02:18:40;0.68;;;0.50;;
79348;SDS011;68817;48.110;11.660;2023-12-14T02:21:06;0.70;;;0.50;;
79348;SDS011;68817;48.110;11.660;2023-12-14T02:23:31;0.90;;;0.43;;
79348;SDS011;68817;48.110;11.660;2023-12-14T02:25:56;0.32;;;0.32;;
79348;SDS011;68817;48.110;11.660;2023-12-14T02:28:22;1.30;;;0.40;;
79348;SDS011;68817;48.110;11.660;2023-12-14T02:30:48;0.80;;;0.57;;
79348;SDS011;68817;48.110;11.660;2023-12-14T02:33:13;0.40;;;0.30;;
79348;SDS011;68817;48.110;11.660;2023-12-14T02:35:38;0.55;;;0.30;;
79348;SDS011;68817;48.110;11.660;2023-12-14T02:38:04;0.50;;;0.50;;
79348;SDS011;68817;48.110;11.660;2023-12-14T02:40:29;0.70;;;0.52;;
79348;SDS011;68817;48.110;11.660;2023-12-14T02:42:55;0.80;;;0.57;;
79348;SDS011;68817;48.110;11.660;2023-12-14T02:45:20;0.85;;;0.70;;
79348;SDS011;68817;48.110;11.660;2023-12-14T02:47:45;1.08;;;0.80;;
79348;SDS011;68817;48.110;11.660;2023-12-14T02:50:12;1.25;;;0.80;;
79348;SDS011;68817;48.110;11.660;2023-12-14T02:52:38;0.90;;;0.60;;
79348;SDS011;68817;48.110;11.660;2023-12-14T02:55:04;1.00;;;0.63;;
79348;SDS011;68817;48.110;11.660;2023-12-14T02:57:29;1.30;;;1.00;;
79348;SDS011;68817;48.110;11.660;2023-12-14T02:59:55;0.95;;;0.70;;
79348;SDS011;68817;48.110;11.660;2023-12-14T03:02:20;1.08;;;0.90;;
79348;SDS011;68817;48.110;11.660;2023-12-14T03:04:46;1.90;;;0.85;;
79348;SDS011;68817;48.110;11.660;2023-12-14T03:07:11;2.00;;;1.02;;
79348;SDS011;68817;48.110;11.660;2023-12-14T03:09:39;2.72;;;1.20;;
79348;SDS011;68817;48.110;11.660;2023-12-14T03:12:06;1.33;;;0.90;;
79348;SDS011;68817;48.110;11.660;2023-12-14T03:14:32;1.60;;;1.10;;
79348;SDS011;68817;48.110;11.660;2023-12-14T03:16:58;3.03;;;1.17;;
79348;SDS011;68817;48.110;11.660;2023-12-14T03:19:24;2.30;;;1.00;;
79348;SDS011;68817;48.110;11.660;2023-12-14T03:21:49;1.90;;;1.20;;
79348;SDS011;68817;48.110;11.660;2023-12-14T03:24:14;1.10;;;0.80;;
79348;SDS011;68817;48.110;11.660;2023-12-14T03:26:40;1.30;;;0.80;;
79348;SDS011;68817;48.110;11.660;2023-12-14T03:29:05;1.63;;;1.15;;
79348;SDS011;68817;48.110;11.660;2023-12-14T03:31:31;2.20;;;1.13;;
79348;SDS011;68817;48.110;11.660;2023-12-14T03:33:56;1.42;;;0.90;;
79348;SDS011;68817;48.110;11.660;2023-12-14T03:36:21;1.38;;;1.02;;
79348;SDS011;68817;48.110;11.660;2023-12-14T03:38:50;1.50;;;1.20;;
79348;SDS011;68817;48.110;11.660;2023-12-14T03:41:16;1.45;;;0.98;;
79348;SDS011;68817;48.110;11.660;2023-12-14T03:43:41;1.70;;;1.27;;
79348;SDS011;68817;48.110;11.660;2023-12-14T03:46:07;1.40;;;1.02;;
79348;SDS011;68817;48.110;11.660;2023-12-14T03:48:32;1.90;;;1.50;;
79348;SDS011;68817;48.110;11.660;2023-12-14T03:51:01;2.17;;;1.50;;
79348;SDS011;68817;48.110;11.660;2023-12-14T03:53:30;2.15;;;1.45;;
79348;SDS011;68817;48.110;11.660;2023-12-14T03:55:56;1.60;;;1.20;;
79348;SDS011;68817;48.110;11.660;2023-12-14T03:58:25;1.50;;;1.10;;
79348;SDS011;68817;48.110;11.660;2023-12-14T04:00:51;1.67;;;1.30;;
79348;SDS011;68817;48.110;11.660;2023-12-14T04:03:17;2.00;;;1.15;;
79348;SDS011;68817;48.110;11.660;2023-12-14T04:05:42;1.25;;;1.10;;
79348;SDS011;68817;48.110;11.660;2023-12-14T04:08:09;1.40;;;1.10;;
79348;SDS011;68817;48.110;11.660;2023-12-14T04:10:34;1.63;;;1.15;;
79348;SDS011;68817;48.110;11.660;2023-12-14T04:13:00;1.70;;;1.35;;
79348;SDS011;68817;48.110;11.660;2023-12-14T04:15:25;2.00;;;1.27;;
79348;SDS011;68817;48.110;11.660;2023-12-14T04:17:50;1.77;;;1.20;;
79348;SDS011;68817;48.110;11.660;2023-12-14T04:20:16;1.90;;;1.45;;
79348;SDS011;68817;48.110;11.660;2023-12-14T04:22:42;1.75;;;1.40;;
79348;SDS011;68817;48.110;11.660;2023-12-14T04:25:08;2.03;;;1.42;;
79348;SDS011;68817;48.110;11.660;2023-12-14T04:27:34;1.67;;;1.25;;
79348;SDS011;68817;48.110;11.660;2023-12-14T04:29:59;3.25;;;1.30;;
79348;SDS011;68817;48.110;11.660;2023-12-14T04:32:25;1.63;;;1.27;;
79348;SDS011;68817;48.110;11.660;2023-12-14T04:34:50;2.20;;;1.30;;
79348;SDS011;68817;48.110;11.660;2023-12-14T04:37:16;2.55;;;1.50;;
79348;SDS011;68817;48.110;11.660;2023-12-14T04:39:41;1.60;;;1.17;;
79348;SDS011;68817;48.110;11.660;2023-12-14T04:42:07;1.83;;;1.30;;
79348;SDS011;68817;48.110;11.660;2023-12-14T04:44:32;1.63;;;1.13;;
79348;SDS011;68817;48.110;11.660;2023-12-14T04:46:58;1.60;;;1.23;;
79348;SDS011;68817;48.110;11.660;2023-12-14T04:49:24;1.83;;;1.23;;
79348;SDS011;68817;48.110;11.660;2023-12-14T04:51:49;1.38;;;1.02;;
79348;SDS011;68817;48.110;11.660;2023-12-14T04:54:15;1.70;;;1.20;;
79348;SDS011;68817;48.110;11.660;2023-12-14T04:56:40;1.60;;;1.00;;
79348;SDS011;68817;48.110;11.660;2023-12-14T04:59:06;1.67;;;1.17;;
79348;SDS011;68817;48.110;11.660;2023-12-14T05:01:32;1.52;;;1.23;;
79348;SDS011;68817;48.110;11.660;2023-12-14T05:03:57;1.83;;;1.15;;
79348;SDS011;68817;48.110;11.660;2023-12-14T05:06:23;2.00;;;1.20;;
79348;SDS011;68817;48.110;11.660;2023-12-14T05:08:48;1.70;;;1.30;;
79348;SDS011;68817;48.110;11.660;2023-12-14T05:11:13;1.60;;;1.20;;
79348;SDS011;68817;48.110;11.660;2023-12-14T05:13:39;1.60;;;1.13;;
79348;SDS011;68817;48.110;11.660;2023-12-14T05:16:05;1.40;;;1.00;;
79348;SDS011;68817;48.110;11.660;2023-12-14T05:18:31;2.03;;;0.90;;
79348;SDS011;68817;48.110;11.660;2023-12-14T05:20:56;1.23;;;0.70;;
79348;SDS011;68817;48.110;11.660;2023-12-14T05:23:22;1.38;;;0.77;;
79348;SDS011;68817;48.110;11.660;2023-12-14T05:25:49;1.38;;;0.65;;
79348;SDS011;68817;48.110;11.660;2023-12-14T05:28:14;2.15;;;0.90;;
79348;SDS011;68817;48.110;11.660;2023-12-14T05:30:39;1.35;;;0.90;;
79348;SDS011;68817;48.110;11.660;2023-12-14T05:33:05;1.92;;;0.77;;
79348;SDS011;68817;48.110;11.660;2023-12-14T05:35:30;1.23;;;0.80;;
79348;SDS011;68817;48.110;11.660;2023-12-14T05:37:56;1.40;;;0.90;;
79348;SDS011;68817;48.110;11.660;2023-12-14T05:40:21;2.33;;;1.00;;
79348;SDS011;68817;48.110;11.660;2023-12-14T05:42:47;1.10;;;0.80;;
79348;SDS011;68817;48.110;11.660;2023-12-14T05:45:12;1.55;;;1.05;;
79348;SDS011;68817;48.110;11.660;2023-12-14T05:47:38;1.88;;;1.02;;
79348;SDS011;68817;48.110;11.660;2023-12-14T05:50:03;2.35;;;1.02;;
79348;SDS011;68817;48.110;11.660;2023-12-14T05:52:29;1.75;;;0.95;;
79348;SDS011;68817;48.110;11.660;2023-12-14T05:54:55;1.08;;;0.80;;
79348;SDS011;68817;48.110;11.660;2023-12-14T05:57:20;2.53;;;1.00;;
79348;SDS011;68817;48.110;11.660;2023-12-14T05:59:45;1.40;;;1.05;;
79348;SDS011;68817;48.110;11.660;2023-12-14T06:02:11;1.50;;;1.10;;
79348;SDS011;68817;48.110;11.660;2023-12-14T06:04:37;1.73;;;1.13;;
79348;SDS011;68817;48.110;11.660;2023-12-14T06:07:02;2.95;;;1.48;;
79348;SDS011;68817;48.110;11.660;2023-12-14T06:09:28;4.10;;;1.35;;
79348;SDS011;68817;48.110;11.660;2023-12-14T06:12:00;2.85;;;1.45;;
79348;SDS011;68817;48.110;11.660;2023-12-14T06:14:26;2.47;;;1.60;;
79348;SDS011;68817;48.110;11.660;2023-12-14T06:16:52;2.70;;;1.60;;
79348;SDS011;68817;48.110;11.660;2023-12-14T06:19:17;3.55;;;1.55;;
79348;SDS011;68817;48.110;11.660;2023-12-14T06:21:42;2.63;;;1.60;;
79348;SDS011;68817;48.110;11.660;2023-12-14T06:24:08;2.25;;;1.50;;
79348;SDS011;68817;48.110;11.660;2023-12-14T06:26:33;1.83;;;1.58;;
79348;SDS011;68817;48.110;11.660;2023-12-14T06:28:59;2.45;;;1.75;;
79348;SDS011;68817;48.110;11.660;2023-12-14T06:31:24;3.47;;;1.63;;
79348;SDS011;68817;48.110;11.660;2023-12-14T06:33:49;4.32;;;2.55;;
79348;SDS011;68817;48.110;11.660;2023-12-14T06:36:15;2.42;;;1.55;;
79348;SDS011;68817;48.110;11.660;2023-12-14T06:38:42;4.10;;;2.00;;
79348;SDS011;68817;48.110;11.660;2023-12-14T06:41:08;4.03;;;1.73;;
79348;SDS011;68817;48.110;11.660;2023-12-14T06:43:34;3.50;;;2.17;;
79348;SDS011;68817;48.110;11.660;2023-12-14T06:45:59;3.35;;;2.30;;
79348;SDS011;68817;48.110;11.660;2023-12-14T06:48:25;3.17;;;2.53;;
79348;SDS011;68817;48.110;11.660;2023-12-14T06:50:50;5.40;;;2.50;;
79348;SDS011;68817;48.110;11.660;2023-12-14T06:53:16;3.60;;;2.03;;
79348;SDS011;68817;48.110;11.660;2023-12-14T06:55:41;3.28;;;2.22;;
79348;SDS011;68817;48.110;11.660;2023-12-14T06:58:07;3.65;;;2.42;;
79348;SDS011;68817;48.110;11.660;2023-12-14T07:00:36;7.00;;;2.45;;
79348;SDS011;68817;48.110;11.660;2023-12-14T07:03:02;3.05;;;1.90;;
79348;SDS011;68817;48.110;11.660;2023-12-14T07:05:28;3.58;;;2.47;;
79348;SDS011;68817;48.110;11.660;2023-12-14T07:07:54;4.57;;;2.20;;
79348;SDS011;68817;48.110;11.660;2023-12-14T07:10:21;2.58;;;1.88;;
79348;SDS011;68817;48.110;11.660;2023-12-14T07:12:47;3.85;;;2.20;;
79348;SDS011;68817;48.110;11.660;2023-12-14T07:15:12;5.30;;;2.58;;
79348;SDS011;68817;48.110;11.660;2023-12-14T07:17:38;5.78;;;2.13;;
79348;SDS011;68817;48.110;11.660;2023-12-14T07:20:03;4.82;;;2.50;;
79348;SDS011;68817;48.110;11.660;2023-12-14T07:22:29;4.80;;;2.25;;
79348;SDS011;68817;48.110;11.660;2023-12-14T07:24:54;4.60;;;2.30;;
79348;SDS011;68817;48.110;11.660;2023-12-14T07:27:20;6.20;;;3.03;;
79348;SDS011;68817;48.110;11.660;2023-12-14T07:29:45;7.97;;;3.10;;
79348;SDS011;68817;48.110;11.660;2023-12-14T07:32:11;4.38;;;2.10;;
79348;SDS011;68817;48.110;11.660;2023-12-14T07:34:37;5.90;;;2.65;;
79348;SDS011;68817;48.110;11.660;2023-12-14T07:37:02;5.90;;;3.25;;
79348;SDS011;68817;48.110;11.660;2023-12-14T07:39:28;7.55;;;3.30;;
79348;SDS011;68817;48.110;11.660;2023-12-14T07:41:54;8.25;;;3.00;;
79348;SDS011;68817;48.110;11.660;2023-12-14T07:44:19;4.25;;;2.72;;
79348;SDS011;68817;48.110;11.660;2023-12-14T07:46:45;7.07;;;3.40;;
79348;SDS011;68817;48.110;11.660;2023-12-14T07:49:10;7.72;;;3.60;;
79348;SDS011;68817;48.110;11.660;2023-12-14T07:51:36;6.25;;;2.80;;
79348;SDS011;68817;48.110;11.660;2023-12-14T07:54:01;6.25;;;3.22;;
79348;SDS011;68817;48.110;11.660;2023-12-14T07:56:29;7.13;;;3.15;;
79348;SDS011;68817;48.110;11.660;2023-12-14T07:58:54;4.93;;;3.00;;
79348;SDS011;68817;48.110;11.660;2023-12-14T08:01:20;6.82;;;2.97;;
79348;SDS011;68817;48.110;11.660;2023-12-14T08:03:45;4.07;;;2.75;;
79348;SDS011;68817;48.110;11.660;2023-12-14T08:06:11;3.78;;;3.00;;
79348;SDS011;68817;48.110;11.660;2023-12-14T08:08:37;6.43;;;3.28;;
79348;SDS011;68817;48.110;11.660;2023-12-14T08:11:03;5.05;;;2.85;;
79348;SDS011;68817;48.110;11.660;2023-12-14T08:13:29;5.38;;;2.88;;
79348;SDS011;68817;48.110;11.660;2023-12-14T08:15:55;5.25;;;2.75;;
79348;SDS011;68817;48.110;11.660;2023-12-14T08:18:20;4.35;;;3.00;;
79348;SDS011;68817;48.110;11.660;2023-12-14T08:20:46;5.38;;;2.72;;
79348;SDS011;68817;48.110;11.660;2023-12-14T08:23:11;4.70;;;2.60;;
79348;SDS011;68817;48.110;11.660;2023-12-14T08:25:36;7.78;;;2.90;;
79348;SDS011;68817;48.110;11.660;2023-12-14T08:28:02;5.18;;;2.63;;
79348;SDS011;68817;48.110;11.660;2023-12-14T08:30:27;4.10;;;2.90;;
79348;SDS011;68817;48.110;11.660;2023-12-14T08:32:53;4.93;;;2.85;;
79348;SDS011;68817;48.110;11.660;2023-12-14T08:35:18;5.22;;;3.25;;
79348;SDS011;68817;48.110;11.660;2023-12-14T08:37:44;3.92;;;2.80;;
79348;SDS011;68817;48.110;11.660;2023-12-14T08:40:09;54.40;;;7.40;;
79348;SDS011;68817;48.110;11.660;2023-12-14T08:42:35;6.07;;;2.60;;
79348;SDS011;68817;48.110;11.660;2023-12-14T08:45:01;5.03;;;3.22;;
79348;SDS011;68817;48.110;11.660;2023-12-14T08:47:26;7.85;;;2.63;;
79348;SDS011;68817;48.110;11.660;2023-12-14T08:49:52;5.05;;;2.83;;
79348;SDS011;68817;48.110;11.660;2023-12-14T08:52:18;5.03;;;3.33;;
79348;SDS011;68817;48.110;11.660;2023-12-14T08:54:43;4.50;;;3.13;;
79348;SDS011;68817;48.110;11.660;2023-12-14T08:57:09;5.60;;;3.17;;
79348;SDS011;68817;48.110;11.660;2023-12-14T08:59:35;5.20;;;3.00;;
79348;SDS011;68817;48.110;11.660;2023-12-14T09:02:01;5.40;;;3.22;;
79348;SDS011;68817;48.110;11.660;2023-12-14T09:04:27;5.15;;;3.05;;
79348;SDS011;68817;48.110;11.660;2023-12-14T09:06:52;5.03;;;3.22;;
79348;SDS011;68817;48.110;11.660;2023-12-14T09:09:18;6.00;;;3.25;;
79348;SDS011;68817;48.110;11.660;2023-12-14T09:11:44;4.65;;;2.65;;
79348;SDS011;68817;48.110;11.660;2023-12-14T09:14:09;5.75;;;3.25;;
79348;SDS011;68817;48.110;11.660;2023-12-14T09:16:35;4.72;;;2.58;;
79348;SDS011;68817;48.110;11.660;2023-12-14T09:19:00;8.23;;;3.28;;
79348;SDS011;68817;48.110;11.660;2023-12-14T09:21:26;4.32;;;2.72;;
79348;SDS011;68817;48.110;11.660;2023-12-14T09:23:51;2.65;;;2.05;;
79348;SDS011;68817;48.110;11.660;2023-12-14T09:26:18;5.43;;;2.60;;
79348;SDS011;68817;48.110;11.660;2023-12-14T09:28:44;5.55;;;2.33;;
79348;SDS011;68817;48.110;11.660;2023-12-14T09:31:09;7.18;;;2.20;;
79348;SDS011;68817;48.110;11.660;2023-12-14T09:33:35;4.82;;;2.40;;
79348;SDS011;68817;48.110;11.660;2023-12-14T09:36:00;4.40;;;2.53;;
79348;SDS011;68817;48.110;11.660;2023-12-14T09:38:26;3.08;;;2.15;;
79348;SDS011;68817;48.110;11.660;2023-12-14T09:40:51;4.68;;;2.63;;
79348;SDS011;68817;48.110;11.660;2023-12-14T09:43:17;5.40;;;2.38;;
79348;SDS011;68817;48.110;11.660;2023-12-14T09:45:42;4.03;;;2.33;;
79348;SDS011;68817;48.110;11.660;2023-12-14T09:48:10;5.55;;;2.90;;
79348;SDS011;68817;48.110;11.660;2023-12-14T09:50:36;4.88;;;3.00;;
79348;SDS011;68817;48.110;11.660;2023-12-14T09:53:03;3.83;;;2.30;;
79348;SDS011;68817;48.110;11.660;2023-12-14T09:55:29;2.85;;;1.80;;
79348;SDS011;68817;48.110;11.660;2023-12-14T09:57:56;3.42;;;2.03;;
79348;SDS011;68817;48.110;11.660;2023-12-14T10:00:34;3.00;;;2.00;;
79348;SDS011;68817;48.110;11.660;2023-12-14T10:03:17;2.90;;;1.95;;
79348;SDS011;68817;48.110;11.660;2023-12-14T10:08:10;2.28;;;1.80;;
79348;SDS011;68817;48.110;11.660;2023-12-14T10:10:35;3.17;;;2.00;;
79348;SDS011;68817;48.110;11.660;2023-12-14T10:13:00;2.92;;;1.83;;
79348;SDS011;68817;48.110;11.660;2023-12-14T10:15:26;2.63;;;2.13;;
79348;SDS011;68817;48.110;11.660;2023-12-14T10:17:52;3.95;;;1.80;;
79348;SDS011;68817;48.110;11.660;2023-12-14T10:20:22;2.72;;;1.95;;
79348;SDS011;68817;48.110;11.660;2023-12-14T10:22:50;3.95;;;2.03;;
79348;SDS011;68817;48.110;11.660;2023-12-14T10:25:17;3.30;;;2.00;;
79348;SDS011;68817;48.110;11.660;2023-12-14T10:27:46;3.20;;;2.17;;
79348;SDS011;68817;48.110;11.660;2023-12-14T10:30:12;3.45;;;2.03;;
79348;SDS011;68817;48.110;11.660;2023-12-14T10:32:38;2.72;;;1.67;;
79348;SDS011;68817;48.110;11.660;2023-12-14T10:35:04;3.92;;;1.80;;
79348;SDS011;68817;48.110;11.660;2023-12-14T10:37:30;2.78;;;1.52;;
79348;SDS011;68817;48.110;11.660;2023-12-14T10:39:56;3.17;;;1.80;;
79348;SDS011;68817;48.110;11.660;2023-12-14T10:42:22;2.38;;;1.58;;
79348;SDS011;68817;48.110;11.660;2023-12-14T10:44:51;3.47;;;1.70;;
79348;SDS011;68817;48.110;11.660;2023-12-14T10:47:20;1.60;;;1.30;;
79348;SDS011;68817;48.110;11.660;2023-12-14T10:49:50;2.15;;;1.40;;
79348;SDS011;68817;48.110;11.660;2023-12-14T10:52:16;1.80;;;1.30;;
79348;SDS011;68817;48.110;11.660;2023-12-14T10:54:42;2.78;;;1.30;;
79348;SDS011;68817;48.110;11.660;2023-12-14T10:57:09;2.80;;;1.50;;
79348;SDS011;68817;48.110;11.660;2023-12-14T10:59:34;1.98;;;1.25;;
79348;SDS011;68817;48.110;11.660;2023-12-14T11:02:00;3.95;;;1.27;;
79348;SDS011;68817;48.110;11.660;2023-12-14T11:04:45;2.00;;;1.40;;
79348;SDS011;68817;48.110;11.660;2023-12-14T11:10:12;2.55;;;1.30;;
79348;SDS011;68817;48.110;11.660;2023-12-14T11:12:49;2.83;;;1.70;;
79348;SDS011;68817;48.110;11.660;2023-12-14T11:15:17;2.60;;;1.30;;
79348;SDS011;68817;48.110;11.660;2023-12-14T11:17:49;2.33;;;1.50;;
79348;SDS011;68817;48.110;11.660;2023-12-14T11:20:56;4.47;;;2.10;;
79348;SDS011;68817;48.110;11.660;2023-12-14T11:25:53;4.05;;;2.10;;
79348;SDS011;68817;48.110;11.660;2023-12-14T11:28:20;2.25;;;1.60;;
79348;SDS011;68817;48.110;11.660;2023-12-14T11:30:46;2.03;;;1.60;;
79348;SDS011;68817;48.110;11.660;2023-12-14T11:33:12;2.45;;;1.60;;
79348;SDS011;68817;48.110;11.660;2023-12-14T11:35:38;2.40;;;1.70;;
79348;SDS011;68817;48.110;11.660;2023-12-14T11:38:03;2.60;;;1.80;;
79348;SDS011;68817;48.110;11.660;2023-12-14T11:40:44;2.25;;;1.95;;
79348;SDS011;68817;48.110;11.660;2023-12-14T11:43:10;3.42;;;2.00;;
79348;SDS011;68817;48.110;11.660;2023-12-14T11:45:39;3.15;;;1.83;;
79348;SDS011;68817;48.110;11.660;2023-12-14T11:48:08;4.38;;;3.08;;
79348;SDS011;68817;48.110;11.660;2023-12-14T11:53:02;2.25;;;1.30;;
79348;SDS011;68817;48.110;11.660;2023-12-14T11:55:28;2.42;;;1.50;;
79348;SDS011;68817;48.110;11.660;2023-12-14T11:57:55;2.90;;;1.55;;
79348;SDS011;68817;48.110;11.660;2023-12-14T12:00:27;3.50;;;1.40;;
79348;SDS011;68817;48.110;11.660;2023-12-14T12:05:48;3.38;;;1.45;;
79348;SDS011;68817;48.110;11.660;2023-12-14T12:08:16;2.05;;;1.20;;
79348;SDS011;68817;48.110;11.660;2023-12-14T12:10:43;2.33;;;1.63;;
79348;SDS011;68817;48.110;11.660;2023-12-14T12:13:13;2.15;;;1.50;;
79348;SDS011;68817;48.110;11.660;2023-12-14T12:15:39;2.78;;;1.30;;
79348;SDS011;68817;48.110;11.660;2023-12-14T12:18:05;1.83;;;1.20;;
79348;SDS011;68817;48.110;11.660;2023-12-14T12:20:32;2.13;;;1.30;;
79348;SDS011;68817;48.110;11.660;2023-12-14T12:22:58;1.75;;;1.23;;
79348;SDS011;68817;48.110;11.660;2023-12-14T12:25:24;2.03;;;1.20;;
79348;SDS011;68817;48.110;11.660;2023-12-14T12:27:51;1.50;;;1.20;;
79348;SDS011;68817;48.110;11.660;2023-12-14T12:30:17;2.13;;;1.30;;
79348;SDS011;68817;48.110;11.660;2023-12-14T12:32:42;1.80;;;1.30;;
79348;SDS011;68817;48.110;11.660;2023-12-14T12:35:08;2.25;;;1.30;;
79348;SDS011;68817;48.110;11.660;2023-12-14T12:37:34;1.90;;;1.02;;
79348;SDS011;68817;48.110;11.660;2023-12-14T12:40:00;2.25;;;1.42;;
79348;SDS011;68817;48.110;11.660;2023-12-14T12:42:25;3.17;;;1.20;;
79348;SDS011;68817;48.110;11.660;2023-12-14T12:44:51;1.85;;;1.15;;
79348;SDS011;68817;48.110;11.660;2023-12-14T12:47:16;2.50;;;1.00;;
79348;SDS011;68817;48.110;11.660;2023-12-14T12:49:42;2.30;;;1.40;;
79348;SDS011;68817;48.110;11.660;2023-12-14T12:52:08;2.08;;;1.38;;
79348;SDS011;68817;48.110;11.660;2023-12-14T12:54:34;1.85;;;1.20;;
79348;SDS011;68817;48.110;11.660;2023-12-14T12:56:59;2.65;;;1.52;;
79348;SDS011;68817;48.110;11.660;2023-12-14T12:59:25;3.47;;;1.20;;
79348;SDS011;68817;48.110;11.660;2023-12-14T13:01:50;2.28;;;1.08;;
79348;SDS011;68817;48.110;11.660;2023-12-14T13:04:19;2.15;;;1.40;;
79348;SDS011;68817;48.110;11.660;2023-12-14T13:06:45;3.55;;;1.10;;
79348;SDS011;68817;48.110;11.660;2023-12-14T13:09:13;2.05;;;1.30;;
79348;SDS011;68817;48.110;11.660;2023-12-14T13:11:39;2.80;;;1.35;;
79348;SDS011;68817;48.110;11.660;2023-12-14T13:14:05;2.78;;;1.17;;
79348;SDS011;68817;48.110;11.660;2023-12-14T13:16:33;2.13;;;1.00;;
79348;SDS011;68817;48.110;11.660;2023-12-14T13:18:59;1.10;;;0.93;;
79348;SDS011;68817;48.110;11.660;2023-12-14T13:21:25;2.22;;;1.20;;
79348;SDS011;68817;48.110;11.660;2023-12-14T13:23:50;2.20;;;1.20;;
79348;SDS011;68817;48.110;11.660;2023-12-14T13:26:16;1.50;;;0.95;;
79348;SDS011;68817;48.110;11.660;2023-12-14T13:28:41;1.40;;;1.27;;
79348;SDS011;68817;48.110;11.660;2023-12-14T13:31:07;1.98;;;1.00;;
79348;SDS011;68817;48.110;11.660;2023-12-14T13:33:32;3.08;;;1.00;;
79348;SDS011;68817;48.110;11.660;2023-12-14T13:35:58;2.20;;;1.00;;
79348;SDS011;68817;48.110;11.660;2023-12-14T13:38:23;2.05;;;1.00;;
79348;SDS011;68817;48.110;11.660;2023-12-14T13:40:49;1.80;;;1.00;;
79348;SDS011;68817;48.110;11.660;2023-12-14T13:43:14;1.85;;;1.10;;
79348;SDS011;68817;48.110;11.660;2023-12-14T13:45:39;1.70;;;1.00;;
79348;SDS011;68817;48.110;11.660;2023-12-14T13:48:07;1.80;;;1.20;;
79348;SDS011;68817;48.110;11.660;2023-12-14T13:50:33;2.70;;;1.00;;
79348;SDS011;68817;48.110;11.660;2023-12-14T13:52:59;1.83;;;1.20;;
79348;SDS011;68817;48.110;11.660;2023-12-14T13:55:25;2.08;;;1.10;;
79348;SDS011;68817;48.110;11.660;2023-12-14T13:57:50;2.30;;;1.33;;
79348;SDS011;68817;48.110;11.660;2023-12-14T14:00:16;2.80;;;1.20;;
79348;SDS011;68817;48.110;11.660;2023-12-14T14:02:41;3.05;;;1.33;;
79348;SDS011;68817;48.110;11.660;2023-12-14T14:05:07;2.63;;;1.20;;
79348;SDS011;68817;48.110;11.660;2023-12-14T14:07:32;2.03;;;1.55;;
79348;SDS011;68817;48.110;11.660;2023-12-14T14:09:57;2.97;;;1.20;;
79348;SDS011;68817;48.110;11.660;2023-12-14T14:12:23;4.30;;;1.55;;
79348;SDS011;68817;48.110;11.660;2023-12-14T14:14:48;2.38;;;1.67;;
79348;SDS011;68817;48.110;11.660;2023-12-14T14:17:14;2.40;;;1.55;;
79348;SDS011;68817;48.110;11.660;2023-12-14T14:19:40;1.98;;;1.40;;
79348;SDS011;68817;48.110;11.660;2023-12-14T14:22:05;2.25;;;1.30;;
79348;SDS011;68817;48.110;11.660;2023-12-14T14:24:30;1.90;;;1.52;;
79348;SDS011;68817;48.110;11.660;2023-12-14T14:26:56;3.08;;;1.30;;
79348;SDS011;68817;48.110;11.660;2023-12-14T14:29:22;3.70;;;1.45;;
79348;SDS011;68817;48.110;11.660;2023-12-14T14:31:47;2.85;;;1.50;;
79348;SDS011;68817;48.110;11.660;2023-12-14T14:34:13;2.30;;;1.40;;
79348;SDS011;68817;48.110;11.660;2023-12-14T14:36:38;2.05;;;1.65;;
79348;SDS011;68817;48.110;11.660;2023-12-14T14:39:04;2.10;;;1.35;;